Time;durP1;ratioP1;P1;durP2;ratioP2;P2;SDS_P1;SDS_P2;PMS_P1;PMS_P2;Temp;Humidity;BMP_temperature;BMP_pressure;BME280_temperature;BME280_humidity;BME280_pressure;Samples;Min_cycle;Max_cycle;Signal;HPM_P1;HPM_P2
2022/08/12 00:44:42;;;;;;;37.13;35.33;;;16.50;90.10;;;;;;5053347;28;20179;-69
2022/08/12 00:47:09;;;;;;;25.67;24.40;;;16.50;90.30;;;;;;5052514;28;20705;-70
2022/08/12 00:49:35;;;;;;;75.50;71.83;;;16.50;90.80;;;;;;5053006;28;20670;-70
2022/08/12 00:52:05;;;;;;;79.80;75.87;;;16.40;91.00;;;;;;4998958;28;20193;-69
2022/08/12 00:54:45;;;;;;;79.40;75.63;;;16.40;91.50;;;;;;4971266;28;20221;-69
2022/08/12 00:57:26;;;;;;;81.53;77.53;;;16.40;91.70;;;;;;4970427;28;20725;-69
2022/08/12 01:00:00;;;;;;;48.37;46.00;;;16.30;92.20;;;;;;4970023;28;20209;-69
2022/08/12 01:02:32;;;;;;;34.77;33.10;;;16.30;92.80;;;;;;4970882;28;20176;-69
2022/08/12 01:13:20;;;;;;;60.00;57.03;;;16.00;95.30;;;;;;5052455;28;20654;-70
2022/08/12 01:15:50;;;;;;;60.70;57.73;;;15.90;96.40;;;;;;5052363;28;20237;-70
2022/08/12 01:18:18;;;;;;;30.50;28.73;;;15.90;97.00;;;;;;5052002;28;20228;-71
2022/08/12 01:21:15;;;;;;;31.43;29.67;;;15.90;97.80;;;;;;4971103;28;20181;-70
2022/08/12 01:23:53;;;;;;;23.80;22.43;;;15.90;98.70;;;;;;4970654;28;20238;-69
2022/08/12 01:26:24;;;;;;;22.43;20.43;;;15.90;99.20;;;;;;4970661;28;20204;-69
2022/08/12 01:28:55;;;;;;;16.37;15.53;;;15.90;99.60;;;;;;5009638;28;20202;-70
2022/08/12 01:31:22;;;;;;;34.73;33.00;;;15.80;99.90;;;;;;5051255;28;20178;-69
2022/08/12 01:34:06;;;;;;;35.20;33.13;;;15.80;99.90;;;;;;5052034;28;20170;-70
2022/08/12 01:37:10;;;;;;;36.00;34.10;;;15.70;99.90;;;;;;5051106;28;20258;-69
2022/08/12 01:39:44;;;;;;;28.27;26.67;;;15.60;99.90;;;;;;5047818;28;20335;-70
2022/08/12 01:42:16;;;;;;;31.63;29.60;;;15.60;99.90;;;;;;5026565;28;20273;-69
2022/08/12 01:44:43;;;;;;;31.27;29.60;;;15.70;99.90;;;;;;4993425;22;20244;-72
2022/08/12 01:47:30;;;;;;;20.73;19.53;;;15.60;99.90;;;;;;4966222;28;20947;-72
2022/08/12 01:50:32;;;;;;;21.20;20.20;;;15.50;99.90;;;;;;4970716;28;20177;-72
2022/08/12 01:53:11;;;;;;;66.73;63.10;;;15.40;99.90;;;;;;4970620;28;20204;-72
2022/08/12 01:55:45;;;;;;;116.70;110.50;;;15.40;99.90;;;;;;5012256;28;20227;-71
2022/08/12 01:59:44;;;;;;;69.13;65.73;;;15.40;99.90;;;;;;5071791;28;20657;-72
2022/08/12 02:01:22;;;;;;;41.50;39.10;;;15.20;99.90;;;;;;5092201;28;20556;-71
2022/08/12 02:13:42;;;;;;;19.67;18.67;;;15.30;99.90;;;;;;5071328;28;20192;-72
2022/08/12 02:16:16;;;;;;;19.03;17.63;;;15.20;99.90;;;;;;5071306;28;20689;-71
2022/08/12 02:18:57;;;;;;;18.80;17.43;;;15.20;99.90;;;;;;5070566;28;20203;-71
2022/08/12 02:21:33;;;;;;;22.17;20.93;;;15.30;99.90;;;;;;5071502;28;20182;-72
2022/08/12 02:24:00;;;;;;;19.27;17.90;;;15.20;99.90;;;;;;5069719;28;20177;-72
2022/08/12 02:26:29;;;;;;;17.87;16.90;;;15.20;99.90;;;;;;5071331;28;20544;-71
2022/08/12 02:28:56;;;;;;;16.30;15.43;;;15.10;99.90;;;;;;5080007;28;20174;-71
2022/08/12 02:31:25;;;;;;;13.60;12.70;;;15.00;99.90;;;;;;5090723;28;20265;-71
2022/08/12 02:33:51;;;;;;;12.40;11.67;;;15.00;99.90;;;;;;5071227;28;20185;-72
2022/08/12 02:36:17;;;;;;;21.83;20.53;;;15.00;99.90;;;;;;5071060;28;20193;-71
2022/08/12 02:38:44;;;;;;;13.10;12.37;;;15.00;99.90;;;;;;5068765;28;20182;-72
2022/08/12 02:41:11;;;;;;;31.57;29.83;;;14.90;99.90;;;;;;5070639;28;20189;-71
2022/08/12 02:43:59;;;;;;;148.27;139.60;;;14.80;99.90;;;;;;5070628;28;20188;-72
2022/08/12 02:46:29;;;;;;;129.37;121.90;;;14.70;99.90;;;;;;5069670;28;20212;-72
2022/08/12 02:49:08;;;;;;;266.93;251.30;;;14.70;99.90;;;;;;5069960;28;20209;-72
2022/08/12 02:51:39;;;;;;;317.00;298.77;;;14.70;99.90;;;;;;5071001;28;20177;-71
2022/08/12 02:54:06;;;;;;;348.00;327.97;;;14.70;99.90;;;;;;5069332;28;20178;-71
2022/08/12 02:56:39;;;;;;;351.47;331.13;;;14.60;99.90;;;;;;5070263;28;20657;-71
2022/08/12 02:59:09;;;;;;;340.70;321.07;;;14.60;99.90;;;;;;5069960;28;20185;-71
2022/08/12 03:01:39;;;;;;;216.60;204.20;;;14.60;99.90;;;;;;5069551;28;20642;-71
2022/08/12 03:04:06;;;;;;;185.80;175.37;;;14.50;99.90;;;;;;5070267;28;20675;-71
2022/08/12 03:06:47;;;;;;;139.80;132.27;;;14.50;99.90;;;;;;5070454;28;20614;-71
2022/08/12 03:09:15;;;;;;;90.03;85.17;;;14.50;99.90;;;;;;5070381;28;20553;-71
2022/08/12 03:11:59;;;;;;;119.77;113.27;;;14.40;99.90;;;;;;5070756;28;20672;-71
2022/08/12 03:14:28;;;;;;;53.43;50.67;;;14.30;99.90;;;;;;5070995;28;20281;-71
2022/08/12 03:17:10;;;;;;;56.07;53.13;;;14.30;99.90;;;;;;5072913;28;20194;-71
2022/08/12 03:19:39;;;;;;;66.57;63.03;;;14.20;99.90;;;;;;5074479;28;20181;-71
2022/08/12 03:22:11;;;;;;;51.97;49.07;;;14.20;99.90;;;;;;5074391;28;20180;-71
2022/08/12 03:24:43;;;;;;;38.83;36.80;;;14.20;99.90;;;;;;5073626;28;20188;-71
2022/08/12 03:27:13;;;;;;;36.53;34.63;;;14.20;99.90;;;;;;5072980;28;20700;-71
2022/08/12 03:29:45;;;;;;;45.37;43.03;;;14.20;99.90;;;;;;5074396;28;20178;-71
2022/08/12 03:32:12;;;;;;;46.73;44.27;;;14.10;99.90;;;;;;5073192;28;20600;-71
2022/08/12 03:34:40;;;;;;;36.47;34.53;;;14.00;99.90;;;;;;5074469;28;20223;-71
2022/08/12 03:37:07;;;;;;;35.13;33.40;;;14.00;99.90;;;;;;5073446;28;20273;-71
2022/08/12 03:42:34;;;;;;;55.87;52.87;;;14.00;99.90;;;;;;5074412;28;20232;-72
2022/08/12 04:01:56;;;;;;;51.77;48.93;;;13.80;99.90;;;;;;5073733;28;20600;-72
2022/08/12 04:04:23;;;;;;;46.70;44.37;;;13.80;99.90;;;;;;5073453;28;20749;-71
2022/08/12 04:06:50;;;;;;;43.80;41.17;;;13.80;99.90;;;;;;5072812;28;20202;-70
2022/08/12 04:09:20;;;;;;;41.57;39.30;;;13.80;99.90;;;;;;5064793;28;20277;-71
2022/08/12 04:14:32;;;;;;;48.73;46.20;;;13.70;99.90;;;;;;5104933;28;20219;-71
2022/08/12 04:16:58;;;;;;;54.47;51.63;;;13.60;99.90;;;;;;5099172;28;20567;-73
2022/08/12 04:19:25;;;;;;;49.00;46.50;;;13.60;99.90;;;;;;5070880;28;20251;-71
2022/08/12 04:21:54;;;;;;;48.60;45.93;;;13.60;99.90;;;;;;5070370;28;20189;-74
2022/08/12 04:24:23;;;;;;;51.40;48.73;;;13.60;99.90;;;;;;5065920;28;20281;-73
2022/08/12 04:26:50;;;;;;;48.87;46.27;;;13.60;99.90;;;;;;5073195;28;20200;-73
2022/08/12 04:29:19;;;;;;;48.23;45.77;;;13.60;99.90;;;;;;5072625;28;20192;-73
2022/08/12 04:31:45;;;;;;;45.67;43.30;;;13.50;99.90;;;;;;5072484;28;20180;-74
2022/08/12 04:34:12;;;;;;;43.20;40.80;;;13.50;99.90;;;;;;5072624;28;20923;-74
2022/08/12 04:36:40;;;;;;;42.30;40.00;;;13.50;99.90;;;;;;5071983;28;20201;-73
2022/08/12 04:39:08;;;;;;;40.20;37.87;;;13.60;99.90;;;;;;5071308;28;20264;-73
2022/08/12 04:41:36;;;;;;;42.87;40.57;;;13.60;99.90;;;;;;5073263;28;20674;-72
2022/08/12 04:44:03;;;;;;;42.63;40.13;;;13.70;99.90;;;;;;5072056;28;20185;-72
2022/08/12 04:46:28;;;;;;;30.87;29.17;;;13.70;99.90;;;;;;5071957;28;20218;-72
2022/08/12 04:48:54;;;;;;;25.30;23.63;;;13.80;99.90;;;;;;5071763;28;20193;-72
2022/08/12 04:51:22;;;;;;;17.73;16.67;;;13.90;99.90;;;;;;5071342;28;20174;-72
2022/08/12 04:53:49;;;;;;;18.70;17.60;;;13.90;99.90;;;;;;5070814;28;20184;-72
2022/08/12 04:56:16;;;;;;;16.97;16.07;;;14.00;99.90;;;;;;5072687;28;20583;-72
2022/08/12 04:58:43;;;;;;;21.23;19.87;;;14.00;99.90;;;;;;5071382;28;20185;-73
2022/08/12 05:01:09;;;;;;;38.57;36.10;;;14.20;99.90;;;;;;5069847;28;20266;-78
2022/08/12 05:03:36;;;;;;;37.63;35.60;;;14.30;99.90;;;;;;5071128;28;20548;-76
2022/08/12 05:06:04;;;;;;;67.77;63.97;;;14.40;99.90;;;;;;5071575;28;20213;-76
2022/08/12 05:08:30;;;;;;;221.87;209.97;;;14.50;99.90;;;;;;5070409;28;20185;-76
2022/08/12 05:10:57;;;;;;;351.33;331.00;;;14.60;99.90;;;;;;5072367;28;20268;-76
2022/08/12 05:13:33;;;;;;;132.33;125.63;;;14.80;99.90;;;;;;5071189;28;20185;-76
2022/08/12 05:15:59;;;;;;;11.30;10.50;;;15.10;99.90;;;;;;5071799;28;20216;-76
2022/08/12 05:18:26;;;;;;;8.40;7.90;;;15.40;99.90;;;;;;5071158;28;20549;-76
2022/08/12 05:20:52;;;;;;;19.63;18.07;;;15.90;99.90;;;;;;5071321;28;20555;-77
2022/08/12 05:23:20;;;;;;;43.27;41.07;;;16.40;99.90;;;;;;5070001;28;20174;-76
2022/08/12 05:25:48;;;;;;;96.93;92.13;;;17.10;99.90;;;;;;5072089;28;20701;-75
2022/08/12 05:28:15;;;;;;;24.50;23.13;;;17.70;99.90;;;;;;5071138;28;20709;-76
2022/08/12 05:30:42;;;;;;;8.13;7.30;;;18.30;99.90;;;;;;5071080;28;20197;-76
2022/08/12 05:33:09;;;;;;;8.73;8.27;;;18.80;99.90;;;;;;5070694;28;20199;-75
2022/08/12 05:35:40;;;;;;;7.78;7.35;;;19.20;99.90;;;;;;5050411;28;20771;-75
2022/08/12 05:40:51;;;;;;;17.98;17.00;;;20.00;99.90;;;;;;5051328;28;20188;-75
2022/08/12 05:43:17;;;;;;;14.43;13.63;;;20.10;99.90;;;;;;5050403;28;20651;-76
2022/08/12 05:45:44;;;;;;;8.60;8.07;;;20.50;99.90;;;;;;5049742;28;20217;-74
2022/08/12 05:48:10;;;;;;;15.68;14.23;;;21.00;99.90;;;;;;5051220;28;20273;-74
2022/08/12 05:50:36;;;;;;;10.13;9.23;;;21.50;99.90;;;;;;5070155;28;20178;-74
2022/08/12 05:53:04;;;;;;;18.63;15.05;;;22.00;99.10;;;;;;5070470;28;20268;-74
2022/08/12 05:55:30;;;;;;;17.23;15.68;;;22.40;97.40;;;;;;5070805;28;20312;-74
2022/08/12 05:57:57;;;;;;;11.40;10.60;;;22.80;96.20;;;;;;5074601;28;20330;-73
2022/08/12 06:00:28;;;;;;;13.02;11.88;;;22.90;95.20;;;;;;5085381;28;20620;-74
2022/08/12 06:03:01;;;;;;;10.07;9.20;;;23.00;94.40;;;;;;5081788;28;20181;-77
2022/08/12 06:05:35;;;;;;;12.48;11.73;;;23.00;94.10;;;;;;5091896;28;20305;-75
2022/08/12 06:08:06;;;;;;;11.95;11.18;;;23.40;92.80;;;;;;5090040;28;20234;-74
2022/08/12 06:10:34;;;;;;;11.93;10.93;;;23.70;92.00;;;;;;5069186;28;20240;-75
2022/08/12 06:13:01;;;;;;;17.88;16.83;;;23.90;91.30;;;;;;5051220;28;20182;-75
2022/08/12 06:15:28;;;;;;;18.23;17.30;;;24.10;90.30;;;;;;5051018;28;20218;-73
2022/08/12 06:17:54;;;;;;;21.15;20.05;;;24.50;90.00;;;;;;5050533;28;20232;-75
2022/08/12 06:20:20;;;;;;;19.80;18.48;;;24.40;88.80;;;;;;5067553;28;20398;-74
2022/08/12 06:22:49;;;;;;;21.83;20.42;;;24.90;88.10;;;;;;5069576;28;20605;-75
2022/08/12 06:25:17;;;;;;;20.63;18.95;;;25.20;85.50;;;;;;5070149;28;20201;-75
2022/08/12 06:27:46;;;;;;;15.27;14.30;;;25.50;83.90;;;;;;5066478;28;20243;-73
2022/08/12 06:30:15;;;;;;;16.73;15.88;;;25.60;82.10;;;;;;5071611;28;20651;-75
2022/08/12 06:32:42;;;;;;;17.98;17.10;;;25.80;80.00;;;;;;5066110;28;20182;-75
2022/08/12 06:35:12;;;;;;;12.00;11.40;;;26.00;78.20;;;;;;5061241;28;20217;-73
2022/08/12 06:37:48;;;;;;;10.52;9.85;;;26.00;77.20;;;;;;5068970;28;20751;-74
2022/08/12 06:42:46;;;;;;;9.73;8.95;;;26.30;75.90;;;;;;5069699;28;20181;-75
2022/08/12 06:43:02;;;;;;;9.45;8.75;;;26.40;76.00;;;;;;5069322;28;20567;-73
2022/08/12 06:45:28;;;;;;;10.63;9.93;;;26.50;74.00;;;;;;5070431;28;20259;-75
2022/08/12 06:47:55;;;;;;;9.30;8.32;;;26.30;75.00;;;;;;5067670;28;20555;-75
2022/08/12 06:50:21;;;;;;;9.15;8.50;;;26.40;73.80;;;;;;5069328;28;20178;-75
2022/08/12 06:52:49;;;;;;;7.78;7.28;;;26.50;74.10;;;;;;5069556;28;20283;-76
2022/08/12 06:55:19;;;;;;;7.40;6.80;;;26.70;72.50;;;;;;5068899;28;20213;-75
2022/08/12 06:57:53;;;;;;;8.30;7.63;;;26.70;72.40;;;;;;5051274;28;20750;-74
2022/08/12 07:00:27;;;;;;;6.82;5.90;;;27.10;72.40;;;;;;5049921;28;20174;-75
2022/08/12 07:02:55;;;;;;;8.75;8.20;;;27.40;70.20;;;;;;5049700;28;20212;-75
2022/08/12 07:05:25;;;;;;;13.77;12.93;;;27.50;68.10;;;;;;5053958;28;20216;-76
2022/08/12 07:08:04;;;;;;;12.95;12.05;;;27.60;67.80;;;;;;5056075;28;20196;-73
2022/08/12 07:10:31;;;;;;;16.95;16.15;;;27.80;68.40;;;;;;5069867;28;20189;-73
2022/08/12 07:13:00;;;;;;;17.90;16.88;;;28.20;66.40;;;;;;5070780;28;20196;-75
2022/08/12 07:15:28;;;;;;;15.40;14.60;;;28.20;66.60;;;;;;5070550;28;20259;-75
2022/08/12 07:18:14;;;;;;;14.15;13.38;;;28.20;65.00;;;;;;5068813;28;20185;-76
2022/08/12 07:20:42;;;;;;;15.55;14.77;;;28.00;65.00;;;;;;5071500;28;20184;-76
2022/08/12 07:23:10;;;;;;;11.18;10.63;;;28.10;65.00;;;;;;5070591;28;20177;-75
2022/08/12 07:25:38;;;;;;;8.68;8.18;;;28.50;63.30;;;;;;5070415;28;20200;-75
2022/08/12 07:28:17;;;;;;;8.52;7.95;;;28.50;63.20;;;;;;5070181;28;20178;-75
2022/08/12 07:30:44;;;;;;;7.68;7.20;;;28.30;63.10;;;;;;5069794;28;20177;-75
2022/08/12 07:33:11;;;;;;;7.10;6.40;;;28.40;61.80;;;;;;5070788;28;20181;-76
2022/08/12 07:35:46;;;;;;;7.20;6.75;;;28.60;62.10;;;;;;5071094;28;20205;-75
2022/08/12 07:38:24;;;;;;;6.85;6.25;;;28.50;60.10;;;;;;5083895;28;20177;-74
2022/08/12 07:40:56;;;;;;;7.45;6.78;;;28.60;60.10;;;;;;5082144;28;20238;-74
2022/08/12 07:43:22;;;;;;;6.30;5.70;;;28.70;59.80;;;;;;5069570;28;20180;-75
2022/08/12 07:45:48;;;;;;;6.60;6.03;;;28.40;59.50;;;;;;5086891;23;20221;-71
2022/08/12 07:48:15;;;;;;;7.57;7.07;;;28.10;60.10;;;;;;5071931;28;20196;-72
2022/08/12 07:50:41;;;;;;;8.68;7.97;;;28.00;61.10;;;;;;5073075;28;20180;-72
2022/08/12 07:53:07;;;;;;;11.45;6.72;;;28.20;60.00;;;;;;5090858;28;20219;-74
2022/08/12 07:55:35;;;;;;;7.53;5.63;;;28.40;59.50;;;;;;5069111;28;20255;-72
2022/08/12 07:58:01;;;;;;;7.65;6.88;;;28.60;59.10;;;;;;5051853;28;20177;-72
2022/08/12 08:00:33;;;;;;;6.65;6.18;;;28.80;57.80;;;;;;5071956;28;20709;-72
2022/08/12 08:02:59;;;;;;;12.68;7.15;;;29.30;57.80;;;;;;5056256;28;20231;-72
2022/08/12 08:05:30;;;;;;;6.93;6.38;;;28.80;56.50;;;;;;5056073;28;20243;-72
2022/08/12 08:08:01;;;;;;;8.93;6.65;;;28.40;57.60;;;;;;5073961;28;20209;-72
2022/08/12 08:10:30;;;;;;;6.40;5.68;;;28.90;58.60;;;;;;5074292;28;20181;-72
2022/08/12 08:12:57;;;;;;;10.23;9.50;;;29.70;55.90;;;;;;5074267;28;20178;-72
2022/08/12 08:15:29;;;;;;;12.52;11.98;;;29.90;55.30;;;;;;5073707;28;20210;-72
2022/08/12 08:18:09;;;;;;;33.78;31.88;;;29.80;55.50;;;;;;5057776;28;20206;-72
2022/08/12 08:20:39;;;;;;;45.90;43.58;;;30.00;54.40;;;;;;5053699;28;20190;-73
2022/08/12 08:23:09;;;;;;;15.27;14.48;;;29.80;53.80;;;;;;5078775;28;20276;-73
2022/08/12 08:25:37;;;;;;;10.13;9.43;;;29.10;55.10;;;;;;5071622;28;20188;-72
2022/08/12 08:28:17;;;;;;;26.42;25.02;;;29.30;55.60;;;;;;5071311;28;20276;-73
2022/08/12 08:30:46;;;;;;;36.15;34.30;;;29.90;54.80;;;;;;5054513;28;20212;-73
2022/08/12 08:33:14;;;;;;;48.85;46.17;;;30.20;54.10;;;;;;5072070;28;20177;-75
2022/08/12 08:35:44;;;;;;;97.60;92.55;;;30.30;53.80;;;;;;5073097;28;20554;-73
2022/08/12 08:38:16;;;;;;;100.70;95.60;;;30.60;53.20;;;;;;5072731;28;20325;-73
2022/08/12 08:43:31;;;;;;;95.03;90.43;;;30.90;51.20;;;;;;5073498;28;20570;-73
2022/08/12 08:46:00;;;;;;;87.82;83.60;;;30.50;50.50;;;;;;5072884;28;20217;-73
2022/08/12 08:48:29;;;;;;;79.07;75.03;;;30.00;50.70;;;;;;5047956;28;20190;-73
2022/08/12 08:50:55;;;;;;;89.78;85.50;;;29.80;50.90;;;;;;5053856;28;20666;-73
2022/08/12 08:53:21;;;;;;;85.25;81.10;;;29.70;51.40;;;;;;5052953;28;20219;-73
2022/08/12 08:55:49;;;;;;;75.18;71.43;;;29.70;50.80;;;;;;5053494;28;20591;-72
2022/08/12 08:58:15;;;;;;;59.75;56.85;;;29.80;50.90;;;;;;5071665;28;20638;-73
2022/08/12 09:00:41;;;;;;;24.00;22.65;;;29.50;51.00;;;;;;5072735;28;20187;-72
2022/08/12 09:03:07;;;;;;;9.15;8.63;;;29.20;51.90;;;;;;5071798;28;20765;-74
2022/08/12 09:05:34;;;;;;;5.95;5.50;;;28.60;51.50;;;;;;5054613;28;20188;-73
2022/08/12 09:08:04;;;;;;;7.45;6.75;;;28.70;52.60;;;;;;5071713;28;20185;-74
2022/08/12 09:10:32;;;;;;;7.15;6.80;;;28.90;51.60;;;;;;5071911;28;20220;-73
2022/08/12 09:15:45;;;;;;;14.05;13.32;;;29.00;50.00;;;;;;5072003;28;20682;-72
2022/08/12 09:18:12;;;;;;;13.68;12.68;;;29.30;49.60;;;;;;5070700;28;20231;-74
2022/08/12 09:20:40;;;;;;;18.98;17.98;;;29.10;49.80;;;;;;5072153;28;20265;-74
2022/08/12 09:23:10;;;;;;;24.00;22.85;;;29.40;49.60;;;;;;5072058;28;20174;-73
2022/08/12 09:25:40;;;;;;;18.42;17.38;;;29.50;49.20;;;;;;5053088;28;20181;-72
2022/08/12 09:28:10;;;;;;;36.40;34.40;;;29.70;49.90;;;;;;5071196;28;20385;-74
2022/08/12 09:30:38;;;;;;;41.90;39.90;;;29.50;48.80;;;;;;5079376;28;20184;-74
2022/08/12 09:33:05;;;;;;;44.97;42.67;;;29.60;48.90;;;;;;5073393;28;20180;-74
2022/08/12 09:35:39;;;;;;;59.25;56.25;;;29.60;48.70;;;;;;5091926;28;20212;-71
2022/08/12 09:38:06;;;;;;;65.97;62.67;;;29.80;48.00;;;;;;5049972;28;20288;-73
2022/08/12 09:40:32;;;;;;;73.07;69.53;;;30.10;48.10;;;;;;5051211;28;20182;-72
2022/08/12 09:45:47;;;;;;;78.45;74.30;;;30.40;48.10;;;;;;5052821;28;20229;-74
2022/08/12 09:48:18;;;;;;;82.78;78.57;;;30.60;46.80;;;;;;5070091;28;20277;-73
2022/08/12 09:50:48;;;;;;;82.07;77.90;;;30.40;46.80;;;;;;5071566;28;20191;-73
2022/08/12 09:53:16;;;;;;;78.88;75.00;;;30.60;46.50;;;;;;5053868;28;20190;-73
2022/08/12 09:55:47;;;;;;;70.72;67.30;;;30.40;47.20;;;;;;5069457;28;20210;-73
2022/08/12 09:58:15;;;;;;;87.72;83.40;;;30.40;47.60;;;;;;5069609;28;20209;-73
2022/08/12 10:00:47;;;;;;;100.43;95.63;;;30.80;46.60;;;;;;5071262;28;21023;-73
2022/08/12 10:03:15;;;;;;;97.78;93.15;;;30.90;45.00;;;;;;5070893;28;20213;-73
2022/08/12 10:05:43;;;;;;;90.88;86.30;;;30.60;45.30;;;;;;5053444;28;20181;-72
2022/08/12 10:08:15;;;;;;;83.35;79.45;;;29.80;45.60;;;;;;5070467;28;20185;-73
2022/08/12 10:13:42;;;;;;;74.72;70.70;;;29.50;46.80;;;;;;5071628;28;20192;-73
2022/08/12 10:16:16;;;;;;;75.05;71.45;;;30.10;46.00;;;;;;5071444;28;20232;-73
2022/08/12 10:18:52;;;;;;;76.20;72.65;;;29.70;45.10;;;;;;5069992;28;20227;-72
2022/08/12 10:21:24;;;;;;;81.30;77.47;;;30.20;45.60;;;;;;5071220;28;20185;-73
2022/08/12 10:23:52;;;;;;;81.00;77.10;;;30.60;45.30;;;;;;5071271;28;20243;-73
2022/08/12 10:31:52;;;;;;;108.03;102.85;;;31.00;43.10;;;;;;5070039;28;20208;-73
2022/08/12 10:34:21;;;;;;;99.25;94.15;;;30.70;44.00;;;;;;5053189;28;20664;-73
2022/08/12 10:36:48;;;;;;;97.88;92.90;;;30.80;43.70;;;;;;5052587;28;20198;-73
2022/08/12 10:39:16;;;;;;;97.63;93.05;;;30.70;43.70;;;;;;5071097;28;20254;-73
2022/08/12 10:44:32;;;;;;;101.80;97.03;;;31.40;43.90;;;;;;5071390;28;20741;-75
2022/08/12 10:46:58;;;;;;;107.82;102.43;;;32.00;42.00;;;;;;5069793;28;20665;-74
2022/08/12 10:49:26;;;;;;;109.78;104.53;;;31.50;42.80;;;;;;5065689;28;20240;-74
2022/08/12 10:51:53;;;;;;;103.75;98.65;;;31.70;43.10;;;;;;5032379;28;20553;-72
2022/08/12 10:54:21;;;;;;;87.10;82.85;;;31.80;42.20;;;;;;5063821;28;20200;-72
2022/08/12 10:56:48;;;;;;;86.35;82.28;;;32.40;40.90;;;;;;5040650;28;20258;-72
2022/08/12 10:59:19;;;;;;;86.22;82.03;;;32.30;41.20;;;;;;5070311;28;20209;-73
2022/08/12 11:01:44;;;;;;;89.88;85.63;;;32.60;41.30;;;;;;5071406;28;20227;-73
2022/08/12 11:04:12;;;;;;;92.30;87.88;;;32.50;41.40;;;;;;5071388;28;20641;-72
2022/08/12 11:06:46;;;;;;;88.82;84.40;;;32.20;41.50;;;;;;5070554;28;20663;-72
2022/08/12 11:09:29;;;;;;;93.35;88.88;;;32.20;40.80;;;;;;5070751;28;20174;-72
2022/08/12 11:11:58;;;;;;;84.57;80.53;;;32.10;41.10;;;;;;5071271;28;20190;-72
2022/08/12 11:14:29;;;;;;;79.80;76.03;;;32.30;41.00;;;;;;5075260;28;20181;-72
2022/08/12 11:16:57;;;;;;;86.15;82.03;;;32.40;40.80;;;;;;5079711;28;20254;-72
2022/08/12 11:19:24;;;;;;;83.28;79.20;;;32.60;40.30;;;;;;5070397;28;20264;-73
2022/08/12 11:21:52;;;;;;;90.75;86.38;;;32.80;40.30;;;;;;5052756;28;20638;-72
2022/08/12 11:24:18;;;;;;;73.22;69.72;;;33.30;40.50;;;;;;5052821;28;20188;-73
2022/08/12 11:26:44;;;;;;;84.68;80.65;;;33.90;39.30;;;;;;5051854;28;20716;-73
2022/08/12 11:29:10;;;;;;;86.53;82.30;;;33.70;39.50;;;;;;5070011;28;20173;-72
2022/08/12 11:31:36;;;;;;;86.57;82.40;;;32.90;39.40;;;;;;5070408;28;20184;-72
2022/08/12 11:34:01;;;;;;;109.35;104.05;;;32.60;38.80;;;;;;5070558;28;20280;-72
2022/08/12 11:36:28;;;;;;;78.47;74.70;;;33.10;38.40;;;;;;5073508;28;20295;-72
2022/08/12 11:38:54;;;;;;;82.93;79.03;;;34.10;38.20;;;;;;5063885;28;20177;-73
2022/08/12 11:41:21;;;;;;;65.90;62.67;;;34.40;38.70;;;;;;5076725;28;20180;-73
2022/08/12 11:43:47;;;;;;;76.43;72.78;;;34.10;38.60;;;;;;5094799;28;20226;-73
2022/08/12 11:46:13;;;;;;;86.30;82.15;;;33.50;39.40;;;;;;5091496;28;20295;-72
2022/08/12 11:48:39;;;;;;;94.15;89.65;;;34.00;38.20;;;;;;5056065;28;20189;-75
2022/08/12 11:51:08;;;;;;;85.95;81.88;;;32.70;39.50;;;;;;5071552;28;20199;-75
2022/08/12 11:53:35;;;;;;;103.57;98.60;;;31.70;40.90;;;;;;5094191;28;20271;-72
2022/08/12 11:56:03;;;;;;;90.38;86.05;;;32.40;41.50;;;;;;5087298;28;20253;-74
2022/08/12 11:58:29;;;;;;;89.90;85.60;;;33.10;39.90;;;;;;5053269;28;20181;-73
2022/08/12 12:00:55;;;;;;;89.68;85.13;;;32.50;40.20;;;;;;5067182;28;20191;-73
2022/08/12 12:03:21;;;;;;;96.15;91.57;;;32.30;41.30;;;;;;5071878;28;20209;-75
2022/08/12 12:05:47;;;;;;;87.05;82.93;;;32.00;40.70;;;;;;5073356;28;20217;-73
2022/08/12 12:08:22;;;;;;;98.38;93.53;;;31.50;41.10;;;;;;5072438;28;20243;-75
2022/08/12 12:10:52;;;;;;;90.97;86.47;;;31.30;41.50;;;;;;5067322;28;20185;-76
2022/08/12 12:13:19;;;;;;;81.88;77.90;;;31.30;41.70;;;;;;5058845;28;20205;-73
2022/08/12 12:15:46;;;;;;;70.80;67.25;;;30.50;42.30;;;;;;5053284;28;20713;-75
2022/08/12 12:18:26;;;;;;;54.10;51.40;;;30.20;43.20;;;;;;5071319;28;20659;-73
2022/08/12 12:20:54;;;;;;;57.78;55.00;;;29.80;43.70;;;;;;5072625;28;20216;-73
2022/08/12 12:23:20;;;;;;;51.75;48.95;;;29.60;44.30;;;;;;5061215;28;20181;-74
2022/08/12 12:25:46;;;;;;;55.00;52.17;;;30.10;44.10;;;;;;5052467;28;20889;-74
2022/08/12 12:28:12;;;;;;;83.43;79.35;;;31.70;42.40;;;;;;5052912;28;20189;-73
2022/08/12 12:30:39;;;;;;;77.82;74.10;;;33.60;39.70;;;;;;5054108;28;20186;-74
2022/08/12 12:33:06;;;;;;;63.78;60.67;;;34.80;37.60;;;;;;5054003;28;20189;-73
2022/08/12 12:35:32;;;;;;;78.78;74.75;;;34.20;36.60;;;;;;5066088;28;20213;-73
2022/08/12 12:38:16;;;;;;;82.38;78.50;;;32.50;38.60;;;;;;5060740;28;20190;-74
2022/08/12 12:40:44;;;;;;;82.07;77.90;;;31.70;40.10;;;;;;5052459;28;20174;-74
2022/08/12 12:43:11;;;;;;;82.45;78.57;;;32.70;39.40;;;;;;5049612;28;20181;-73
2022/08/12 12:45:38;;;;;;;82.10;78.25;;;34.00;37.70;;;;;;5073127;28;20543;-72
2022/08/12 12:48:09;;;;;;;45.15;42.92;;;34.70;36.80;;;;;;5071218;28;20192;-73
2022/08/12 12:50:44;;;;;;;7.22;6.93;;;36.20;35.40;;;;;;5073332;28;20189;-73
2022/08/12 12:53:11;;;;;;;22.52;21.42;;;35.90;34.90;;;;;;5073210;28;20898;-73
2022/08/12 12:55:38;;;;;;;78.63;74.90;;;33.60;37.50;;;;;;5072703;28;20201;-74
2022/08/12 12:58:10;;;;;;;92.43;88.10;;;32.20;40.10;;;;;;5071595;28;20598;-73
2022/08/12 13:00:39;;;;;;;92.20;87.88;;;31.50;40.80;;;;;;5073080;28;20315;-73
2022/08/12 13:03:05;;;;;;;85.20;80.90;;;30.90;42.00;;;;;;5072639;28;20177;-73
2022/08/12 13:05:35;;;;;;;69.35;66.07;;;30.30;41.30;;;;;;5072794;28;20186;-73
2022/08/12 13:08:03;;;;;;;68.95;65.43;;;29.70;42.30;;;;;;5071671;28;20601;-74
2022/08/12 13:10:30;;;;;;;65.00;61.85;;;30.20;42.70;;;;;;5072851;28;20181;-72
2022/08/12 13:12:56;;;;;;;63.55;60.25;;;30.80;41.20;;;;;;5072677;28;20272;-73
2022/08/12 13:15:23;;;;;;;72.72;68.85;;;30.40;41.50;;;;;;5072820;28;20213;-73
2022/08/12 13:17:54;;;;;;;75.10;71.35;;;31.30;41.30;;;;;;5053354;28;20198;-73
2022/08/12 13:20:22;;;;;;;75.07;71.35;;;32.60;40.20;;;;;;5072548;28;20227;-73
2022/08/12 13:22:48;;;;;;;45.72;43.53;;;34.60;38.00;;;;;;5072203;28;20174;-73
2022/08/12 13:25:15;;;;;;;74.00;70.13;;;34.20;36.20;;;;;;5072564;28;20181;-71
2022/08/12 13:27:46;;;;;;;85.28;81.03;;;32.70;37.60;;;;;;5053349;28;20695;-71
2022/08/12 13:30:19;;;;;;;78.90;75.15;;;32.70;38.50;;;;;;5054697;28;20714;-71
2022/08/12 13:32:53;;;;;;;74.78;71.22;;;33.90;36.60;;;;;;5054217;28;20189;-71
2022/08/12 13:35:19;;;;;;;28.40;27.13;;;33.90;36.50;;;;;;5054587;28;20204;-71
2022/08/12 13:37:54;;;;;;;16.92;16.13;;;35.10;35.00;;;;;;5071026;28;20194;-71
2022/08/12 13:40:25;;;;;;;15.50;14.68;;;35.30;35.00;;;;;;5072276;28;20189;-71
2022/08/12 13:42:52;;;;;;;18.48;17.67;;;35.90;34.50;;;;;;5072044;28;20188;-71
2022/08/12 13:45:18;;;;;;;6.68;5.88;;;35.30;36.30;;;;;;5072287;28;20227;-71
2022/08/12 13:48:04;;;;;;;5.13;4.78;;;36.00;35.00;;;;;;5035158;23;20315;-76
2022/08/12 13:50:35;;;;;;;5.25;4.95;;;36.70;33.20;;;;;;4989903;28;20608;-77
2022/08/12 13:53:21;;;;;;;4.63;4.15;;;35.80;33.80;;;;;;4989069;28;20187;-77
2022/08/12 13:55:48;;;;;;;12.48;11.77;;;34.60;34.60;;;;;;4969104;28;20248;-76
2022/08/12 13:58:21;;;;;;;37.40;35.00;;;33.60;35.70;;;;;;5036862;28;20201;-77
2022/08/12 14:00:49;;;;;;;20.52;19.52;;;33.20;36.20;;;;;;5092596;28;20184;-76
2022/08/12 14:03:20;;;;;;;9.10;8.02;;;34.60;35.00;;;;;;5092229;28;20554;-76
2022/08/12 14:05:46;;;;;;;4.30;4.15;;;35.30;34.40;;;;;;5091473;28;20267;-76
2022/08/12 14:08:14;;;;;;;4.90;4.13;;;36.70;32.80;;;;;;5067508;28;20226;-76
2022/08/12 14:10:45;;;;;;;4.47;4.28;;;36.60;33.30;;;;;;5035701;28;20675;-75
2022/08/12 14:13:13;;;;;;;10.00;9.38;;;36.80;32.50;;;;;;4989249;28;20189;-75
2022/08/12 14:15:42;;;;;;;44.13;41.78;;;33.60;36.00;;;;;;4989752;28;20220;-75
2022/08/12 14:18:16;;;;;;;107.50;102.30;;;32.30;37.80;;;;;;4988979;28;20200;-77
2022/08/12 14:20:45;;;;;;;95.32;90.53;;;31.00;38.80;;;;;;4989080;28;20179;-77
2022/08/12 14:23:12;;;;;;;80.88;76.88;;;29.90;40.40;;;;;;4989403;28;20208;-75
2022/08/12 14:25:39;;;;;;;62.22;58.72;;;29.50;40.90;;;;;;4988614;28;20230;-76
2022/08/12 14:28:14;;;;;;;35.22;33.55;;;29.10;41.40;;;;;;4982679;28;20232;-76